Terminal Aerodrome Forecast
Issued by NWS

Home | Current Version | Previous Version | Text Only | Print | Product List | Glossary On
Versions: 1 2 3 4 5 6 7 8 9 10 11 12 13 14 15 16 17 18 19 20 21 22 23 24 25 26 27 28 29 30 31 32 33 34 35 36 37 38 39 40 41
000
FTPA31 PHFO 042300 RRA
TAFITO
TAF
PHTO 042341Z 0500/0524 35007KT 6SM -RA SCT020 BKN040 OVC080
     FM051200 VRB05KT P6SM -RA SCT020 BKN035 OVC080
     FM051800 30008KT 6SM -RA SCT025 BKN035 OVC080=

USA.gov is the U.S. government's official web portal to all federal, state and local government web resources and services.